This is the latest recevied weather packets stored in our database for station/object K9COE-11. If no packets are shown the sender has not sent any weather packets the latest 1 day(s).
| Time | Temp. | Humidity | Pressure | Rain* | Wind** | Luminosity | Snow |
|---|---|---|---|---|---|---|---|
| 1836274524 | 20° C | 83% | - | 0 mm | 0 m/s | - | - |
| 1836274328 | 20° C | 83% | - | 0 mm | 0 m/s | - | - |
| 1836274104 | 20.56° C | 82% | - | 0 mm | 0 m/s | - | - |
| 1778086948 | 18.89° C | 53% | - | 0 mm | 0 m/s | - | - |
| 1778086566 | 18.89° C | 53% | - | 0 mm | 0 m/s | - | - |
| 1778086437 | 18.89° C | 53% | - | 0 mm | 0 m/s | - | - |
| 1778086061 | 18.89° C | 53% | - | 0 mm | 0 m/s | - | - |
| 1778085932 | 18.89° C | 55% | - | 0 mm | 0 m/s | - | - |
| 1778085809 | 18.89° C | 55% | - | 0 mm | 0 m/s | - | - |
| 1778085550 | 18.33° C | 56% | - | 0 mm | 0 m/s | - | - |
| 1778085425 | 18.33° C | 55% | - | 0 mm | 0 m/s | - | - |
| 1778085163 | 18.33° C | 56% | - | 0 mm | 0 m/s | - | - |
| 1778084904 | 17.78° C | 56% | - | 0 mm | 0 m/s | - | - |
| 1778084644 | 17.78° C | 55% | - | 0 mm | 0 m/s | - | - |
| 1778083874 | 17.22° C | 58% | - | 0 mm | 0 m/s | - | - |
| 1778083751 | 17.22° C | 58% | - | 0 mm | 0 m/s | - | - |
| 1778083253 | 17.22° C | 60% | - | 0 mm | 0 m/s | - | - |
| 1778082613 | 17.22° C | 63% | - | 0 mm | 0 m/s | - | - |
| 1778082486 | 16.11° C | 62% | - | 0 mm | 0 m/s | - | - |
| 1778082312 | 16.11° C | 63% | - | 0 mm | 0 m/s | - | - |
| 1778082234 | 16.11° C | 63% | - | 0 mm | 0 m/s | - | - |
| 1778082233 | 16.11° C | 63% | - | 0 mm | 0 m/s | - | - |
| 1778082105 | 16.67° C | 62% | - | 0 mm | 0 m/s | - | - |
| 1778082020 | 16.67° C | 64% | - | 0 mm | 0 m/s | - | - |
| 1778081975 | 16.67° C | 64% | - | 0 mm | 0 m/s | - | - |
* Rain latest 24 hours (hover to see other rain measurements)
** Current wind speed in m/s (hover to see current wind gust speed)